sensor_id;sensor_type;location;lat;lon;timestamp;P1;durP1;ratioP1;P2;durP2;ratioP2
2638;SDS011;1329;51.384;7.122;2022-11-15T00:02:22;5.47;;;4.97;;
2638;SDS011;1329;51.384;7.122;2022-11-15T00:04:49;6.27;;;5.60;;
2638;SDS011;1329;51.384;7.122;2022-11-15T00:07:16;5.93;;;5.17;;
2638;SDS011;1329;51.384;7.122;2022-11-15T00:09:44;7.47;;;5.67;;
2638;SDS011;1329;51.384;7.122;2022-11-15T00:12:11;5.63;;;5.10;;
2638;SDS011;1329;51.384;7.122;2022-11-15T00:14:37;5.67;;;5.17;;
2638;SDS011;1329;51.384;7.122;2022-11-15T00:17:05;7.07;;;5.45;;
2638;SDS011;1329;51.384;7.122;2022-11-15T00:19:31;6.03;;;5.45;;
2638;SDS011;1329;51.384;7.122;2022-11-15T00:21:59;6.70;;;5.25;;
2638;SDS011;1329;51.384;7.122;2022-11-15T00:24:26;5.97;;;5.32;;
2638;SDS011;1329;51.384;7.122;2022-11-15T00:26:54;5.70;;;5.20;;
2638;SDS011;1329;51.384;7.122;2022-11-15T00:29:21;5.67;;;4.87;;
2638;SDS011;1329;51.384;7.122;2022-11-15T00:31:48;5.63;;;5.00;;
2638;SDS011;1329;51.384;7.122;2022-11-15T00:34:15;6.00;;;4.97;;
2638;SDS011;1329;51.384;7.122;2022-11-15T00:36:43;5.60;;;4.77;;
2638;SDS011;1329;51.384;7.122;2022-11-15T00:39:10;5.90;;;5.30;;
2638;SDS011;1329;51.384;7.122;2022-11-15T00:41:36;5.78;;;5.20;;
2638;SDS011;1329;51.384;7.122;2022-11-15T00:44:04;7.05;;;5.10;;
2638;SDS011;1329;51.384;7.122;2022-11-15T00:46:31;7.03;;;5.13;;
2638;SDS011;1329;51.384;7.122;2022-11-15T00:48:58;5.55;;;5.03;;
2638;SDS011;1329;51.384;7.122;2022-11-15T00:51:25;4.85;;;4.35;;
2638;SDS011;1329;51.384;7.122;2022-11-15T00:53:52;5.45;;;4.95;;
2638;SDS011;1329;51.384;7.122;2022-11-15T00:56:19;5.90;;;5.00;;
2638;SDS011;1329;51.384;7.122;2022-11-15T00:58:45;5.70;;;4.97;;
2638;SDS011;1329;51.384;7.122;2022-11-15T01:01:14;6.00;;;5.40;;
2638;SDS011;1329;51.384;7.122;2022-11-15T01:03:41;5.67;;;5.07;;
2638;SDS011;1329;51.384;7.122;2022-11-15T01:06:08;5.80;;;4.93;;
2638;SDS011;1329;51.384;7.122;2022-11-15T01:08:36;6.32;;;5.10;;
2638;SDS011;1329;51.384;7.122;2022-11-15T01:11:05;7.05;;;5.22;;
2638;SDS011;1329;51.384;7.122;2022-11-15T01:13:37;5.80;;;5.20;;
2638;SDS011;1329;51.384;7.122;2022-11-15T01:16:05;5.63;;;5.13;;
2638;SDS011;1329;51.384;7.122;2022-11-15T01:18:35;5.70;;;5.13;;
2638;SDS011;1329;51.384;7.122;2022-11-15T01:21:06;5.93;;;5.32;;
2638;SDS011;1329;51.384;7.122;2022-11-15T01:23:35;5.43;;;5.03;;
2638;SDS011;1329;51.384;7.122;2022-11-15T01:26:03;6.10;;;5.28;;
2638;SDS011;1329;51.384;7.122;2022-11-15T01:28:32;5.13;;;4.63;;
2638;SDS011;1329;51.384;7.122;2022-11-15T01:31:03;5.35;;;4.85;;
2638;SDS011;1329;51.384;7.122;2022-11-15T01:33:33;6.38;;;5.22;;
2638;SDS011;1329;51.384;7.122;2022-11-15T01:36:03;5.45;;;4.95;;
2638;SDS011;1329;51.384;7.122;2022-11-15T01:38:31;6.17;;;5.37;;
2638;SDS011;1329;51.384;7.122;2022-11-15T01:40:57;5.60;;;5.10;;
2638;SDS011;1329;51.384;7.122;2022-11-15T01:43:25;6.05;;;5.35;;
2638;SDS011;1329;51.384;7.122;2022-11-15T01:45:56;5.65;;;5.15;;
2638;SDS011;1329;51.384;7.122;2022-11-15T01:48:30;5.60;;;5.10;;
2638;SDS011;1329;51.384;7.122;2022-11-15T01:51:01;6.22;;;5.10;;
2638;SDS011;1329;51.384;7.122;2022-11-15T01:53:33;5.80;;;5.30;;
2638;SDS011;1329;51.384;7.122;2022-11-15T01:56:04;8.20;;;5.22;;
2638;SDS011;1329;51.384;7.122;2022-11-15T01:58:35;5.83;;;5.13;;
2638;SDS011;1329;51.384;7.122;2022-11-15T02:01:02;5.43;;;4.93;;
2638;SDS011;1329;51.384;7.122;2022-11-15T02:03:31;5.80;;;5.27;;
2638;SDS011;1329;51.384;7.122;2022-11-15T02:06:05;5.25;;;4.75;;
2638;SDS011;1329;51.384;7.122;2022-11-15T02:08:32;5.63;;;5.03;;
2638;SDS011;1329;51.384;7.122;2022-11-15T02:10:59;6.28;;;5.30;;
2638;SDS011;1329;51.384;7.122;2022-11-15T02:13:27;8.15;;;5.63;;
2638;SDS011;1329;51.384;7.122;2022-11-15T02:15:56;6.20;;;5.60;;
2638;SDS011;1329;51.384;7.122;2022-11-15T02:18:33;5.47;;;4.97;;
2638;SDS011;1329;51.384;7.122;2022-11-15T02:21:08;5.63;;;5.13;;
2638;SDS011;1329;51.384;7.122;2022-11-15T02:23:53;4.70;;;4.28;;
2638;SDS011;1329;51.384;7.122;2022-11-15T02:26:56;5.78;;;4.90;;
2638;SDS011;1329;51.384;7.122;2022-11-15T02:30:15;5.63;;;5.13;;
2638;SDS011;1329;51.384;7.122;2022-11-15T02:32:52;6.68;;;5.00;;
2638;SDS011;1329;51.384;7.122;2022-11-15T02:35:26;5.57;;;4.88;;
2638;SDS011;1329;51.384;7.122;2022-11-15T02:38:04;5.05;;;4.57;;
2638;SDS011;1329;51.384;7.122;2022-11-15T02:40:41;5.53;;;4.95;;
2638;SDS011;1329;51.384;7.122;2022-11-15T02:43:18;5.75;;;5.05;;
2638;SDS011;1329;51.384;7.122;2022-11-15T02:46:14;5.25;;;4.75;;
2638;SDS011;1329;51.384;7.122;2022-11-15T02:48:47;5.32;;;4.82;;
2638;SDS011;1329;51.384;7.122;2022-11-15T02:51:15;6.07;;;5.10;;
2638;SDS011;1329;51.384;7.122;2022-11-15T02:53:42;5.43;;;4.93;;
2638;SDS011;1329;51.384;7.122;2022-11-15T02:56:09;5.57;;;5.07;;
2638;SDS011;1329;51.384;7.122;2022-11-15T02:58:42;5.47;;;4.75;;
2638;SDS011;1329;51.384;7.122;2022-11-15T03:01:28;5.45;;;4.70;;
2638;SDS011;1329;51.384;7.122;2022-11-15T03:04:08;5.70;;;5.10;;
2638;SDS011;1329;51.384;7.122;2022-11-15T03:06:52;6.78;;;5.00;;
2638;SDS011;1329;51.384;7.122;2022-11-15T03:09:29;6.10;;;5.30;;
2638;SDS011;1329;51.384;7.122;2022-11-15T03:12:06;6.25;;;5.32;;
2638;SDS011;1329;51.384;7.122;2022-11-15T03:14:39;5.68;;;5.07;;
2638;SDS011;1329;51.384;7.122;2022-11-15T03:17:18;5.75;;;5.25;;
2638;SDS011;1329;51.384;7.122;2022-11-15T03:19:50;6.00;;;5.32;;
2638;SDS011;1329;51.384;7.122;2022-11-15T03:22:20;5.97;;;5.38;;
2638;SDS011;1329;51.384;7.122;2022-11-15T03:24:51;7.57;;;5.50;;
2638;SDS011;1329;51.384;7.122;2022-11-15T03:27:23;6.53;;;5.30;;
2638;SDS011;1329;51.384;7.122;2022-11-15T03:29:55;5.38;;;4.85;;
2638;SDS011;1329;51.384;7.122;2022-11-15T03:32:29;6.05;;;5.28;;
2638;SDS011;1329;51.384;7.122;2022-11-15T03:35:02;7.10;;;5.05;;
2638;SDS011;1329;51.384;7.122;2022-11-15T03:37:33;6.40;;;4.80;;
2638;SDS011;1329;51.384;7.122;2022-11-15T03:40:03;5.75;;;5.25;;
2638;SDS011;1329;51.384;7.122;2022-11-15T03:42:32;5.93;;;5.18;;
2638;SDS011;1329;51.384;7.122;2022-11-15T03:45:07;6.43;;;4.95;;
2638;SDS011;1329;51.384;7.122;2022-11-15T03:47:43;5.43;;;4.93;;
2638;SDS011;1329;51.384;7.122;2022-11-15T03:50:15;4.93;;;4.53;;
2638;SDS011;1329;51.384;7.122;2022-11-15T03:52:46;5.55;;;4.90;;
2638;SDS011;1329;51.384;7.122;2022-11-15T03:55:16;5.53;;;4.82;;
2638;SDS011;1329;51.384;7.122;2022-11-15T03:57:46;5.65;;;5.05;;
2638;SDS011;1329;51.384;7.122;2022-11-15T04:00:18;7.00;;;4.82;;
2638;SDS011;1329;51.384;7.122;2022-11-15T04:02:47;4.97;;;4.47;;
2638;SDS011;1329;51.384;7.122;2022-11-15T04:05:14;5.43;;;4.35;;
2638;SDS011;1329;51.384;7.122;2022-11-15T04:07:41;5.35;;;4.85;;
2638;SDS011;1329;51.384;7.122;2022-11-15T04:10:08;5.30;;;4.80;;
2638;SDS011;1329;51.384;7.122;2022-11-15T04:12:36;5.90;;;4.63;;
2638;SDS011;1329;51.384;7.122;2022-11-15T04:15:08;5.32;;;4.82;;
2638;SDS011;1329;51.384;7.122;2022-11-15T04:17:38;5.72;;;4.70;;
2638;SDS011;1329;51.384;7.122;2022-11-15T04:20:10;5.15;;;4.65;;
2638;SDS011;1329;51.384;7.122;2022-11-15T04:22:57;4.93;;;4.43;;
2638;SDS011;1329;51.384;7.122;2022-11-15T04:25:43;4.55;;;4.15;;
2638;SDS011;1329;51.384;7.122;2022-11-15T04:28:11;4.75;;;4.35;;
2638;SDS011;1329;51.384;7.122;2022-11-15T04:30:38;4.68;;;4.28;;
2638;SDS011;1329;51.384;7.122;2022-11-15T04:33:05;5.13;;;4.63;;
2638;SDS011;1329;51.384;7.122;2022-11-15T04:35:33;5.50;;;4.55;;
2638;SDS011;1329;51.384;7.122;2022-11-15T04:38:01;5.13;;;4.53;;
2638;SDS011;1329;51.384;7.122;2022-11-15T04:40:29;4.70;;;4.30;;
2638;SDS011;1329;51.384;7.122;2022-11-15T04:42:56;5.13;;;4.63;;
2638;SDS011;1329;51.384;7.122;2022-11-15T04:45:23;6.07;;;4.20;;
2638;SDS011;1329;51.384;7.122;2022-11-15T04:47:50;5.00;;;4.60;;
2638;SDS011;1329;51.384;7.122;2022-11-15T04:50:17;5.00;;;4.50;;
2638;SDS011;1329;51.384;7.122;2022-11-15T04:52:49;4.70;;;4.30;;
2638;SDS011;1329;51.384;7.122;2022-11-15T04:55:19;4.97;;;4.47;;
2638;SDS011;1329;51.384;7.122;2022-11-15T04:57:47;5.53;;;4.57;;
2638;SDS011;1329;51.384;7.122;2022-11-15T05:00:14;4.97;;;4.53;;
2638;SDS011;1329;51.384;7.122;2022-11-15T05:02:43;5.32;;;4.82;;
2638;SDS011;1329;51.384;7.122;2022-11-15T05:05:27;5.30;;;4.80;;
2638;SDS011;1329;51.384;7.122;2022-11-15T05:07:55;5.75;;;5.25;;
2638;SDS011;1329;51.384;7.122;2022-11-15T05:10:22;5.10;;;4.63;;
2638;SDS011;1329;51.384;7.122;2022-11-15T05:12:49;5.35;;;4.85;;
2638;SDS011;1329;51.384;7.122;2022-11-15T05:15:16;5.78;;;5.28;;
2638;SDS011;1329;51.384;7.122;2022-11-15T05:17:43;5.10;;;4.60;;
2638;SDS011;1329;51.384;7.122;2022-11-15T05:20:10;5.40;;;4.90;;
2638;SDS011;1329;51.384;7.122;2022-11-15T05:22:37;5.53;;;4.82;;
2638;SDS011;1329;51.384;7.122;2022-11-15T05:25:06;5.28;;;4.88;;
2638;SDS011;1329;51.384;7.122;2022-11-15T05:27:34;5.65;;;5.25;;
2638;SDS011;1329;51.384;7.122;2022-11-15T05:30:01;5.18;;;4.78;;
2638;SDS011;1329;51.384;7.122;2022-11-15T05:32:29;5.28;;;4.78;;
2638;SDS011;1329;51.384;7.122;2022-11-15T05:34:56;5.20;;;4.80;;
2638;SDS011;1329;51.384;7.122;2022-11-15T05:37:23;5.45;;;4.95;;
2638;SDS011;1329;51.384;7.122;2022-11-15T05:39:50;4.95;;;4.55;;
2638;SDS011;1329;51.384;7.122;2022-11-15T05:42:18;5.57;;;5.07;;
2638;SDS011;1329;51.384;7.122;2022-11-15T05:44:46;5.60;;;5.18;;
2638;SDS011;1329;51.384;7.122;2022-11-15T05:47:15;5.25;;;4.85;;
2638;SDS011;1329;51.384;7.122;2022-11-15T05:49:45;5.55;;;5.05;;
2638;SDS011;1329;51.384;7.122;2022-11-15T05:52:14;5.95;;;5.43;;
2638;SDS011;1329;51.384;7.122;2022-11-15T05:54:45;5.47;;;4.97;;
2638;SDS011;1329;51.384;7.122;2022-11-15T05:57:12;5.78;;;5.20;;
2638;SDS011;1329;51.384;7.122;2022-11-15T05:59:40;5.20;;;4.80;;
2638;SDS011;1329;51.384;7.122;2022-11-15T06:02:08;5.65;;;5.15;;
2638;SDS011;1329;51.384;7.122;2022-11-15T06:04:35;5.10;;;4.70;;
2638;SDS011;1329;51.384;7.122;2022-11-15T06:07:02;5.50;;;5.00;;
2638;SDS011;1329;51.384;7.122;2022-11-15T06:09:29;5.20;;;4.67;;
2638;SDS011;1329;51.384;7.122;2022-11-15T06:11:56;4.82;;;4.40;;
2638;SDS011;1329;51.384;7.122;2022-11-15T06:14:23;5.05;;;4.55;;
2638;SDS011;1329;51.384;7.122;2022-11-15T06:16:52;4.70;;;4.30;;
2638;SDS011;1329;51.384;7.122;2022-11-15T06:19:22;5.13;;;4.60;;
2638;SDS011;1329;51.384;7.122;2022-11-15T06:21:49;4.85;;;4.35;;
2638;SDS011;1329;51.384;7.122;2022-11-15T06:24:16;4.75;;;4.35;;
2638;SDS011;1329;51.384;7.122;2022-11-15T06:26:43;4.07;;;3.78;;
2638;SDS011;1329;51.384;7.122;2022-11-15T06:29:09;4.30;;;3.90;;
2638;SDS011;1329;51.384;7.122;2022-11-15T06:31:36;3.97;;;3.60;;
2638;SDS011;1329;51.384;7.122;2022-11-15T06:34:04;3.78;;;3.35;;
2638;SDS011;1329;51.384;7.122;2022-11-15T06:36:33;4.05;;;3.65;;
2638;SDS011;1329;51.384;7.122;2022-11-15T06:39:00;3.45;;;3.25;;
2638;SDS011;1329;51.384;7.122;2022-11-15T06:41:27;3.20;;;3.00;;
2638;SDS011;1329;51.384;7.122;2022-11-15T06:43:56;3.25;;;2.95;;
2638;SDS011;1329;51.384;7.122;2022-11-15T06:46:23;3.33;;;3.03;;
2638;SDS011;1329;51.384;7.122;2022-11-15T06:48:50;3.10;;;2.80;;
2638;SDS011;1329;51.384;7.122;2022-11-15T06:51:18;3.00;;;2.78;;
2638;SDS011;1329;51.384;7.122;2022-11-15T06:53:45;3.40;;;3.10;;
2638;SDS011;1329;51.384;7.122;2022-11-15T06:56:12;3.05;;;2.85;;
2638;SDS011;1329;51.384;7.122;2022-11-15T06:58:39;3.03;;;2.83;;
2638;SDS011;1329;51.384;7.122;2022-11-15T07:01:06;3.20;;;2.95;;
2638;SDS011;1329;51.384;7.122;2022-11-15T07:03:35;2.78;;;2.53;;
2638;SDS011;1329;51.384;7.122;2022-11-15T07:06:04;3.25;;;2.95;;
2638;SDS011;1329;51.384;7.122;2022-11-15T07:08:33;2.90;;;2.70;;
2638;SDS011;1329;51.384;7.122;2022-11-15T07:11:02;2.72;;;2.53;;
2638;SDS011;1329;51.384;7.122;2022-11-15T07:13:31;2.97;;;2.78;;
2638;SDS011;1329;51.384;7.122;2022-11-15T07:16:01;2.63;;;2.42;;
2638;SDS011;1329;51.384;7.122;2022-11-15T07:18:29;2.70;;;2.50;;
2638;SDS011;1329;51.384;7.122;2022-11-15T07:20:59;2.53;;;2.33;;
2638;SDS011;1329;51.384;7.122;2022-11-15T07:23:28;2.70;;;2.50;;
2638;SDS011;1329;51.384;7.122;2022-11-15T07:25:57;2.72;;;2.50;;
2638;SDS011;1329;51.384;7.122;2022-11-15T07:28:24;2.42;;;2.22;;
2638;SDS011;1329;51.384;7.122;2022-11-15T07:30:52;2.83;;;2.50;;
2638;SDS011;1329;51.384;7.122;2022-11-15T07:33:18;3.00;;;2.47;;
2638;SDS011;1329;51.384;7.122;2022-11-15T07:35:45;3.13;;;2.58;;
2638;SDS011;1329;51.384;7.122;2022-11-15T07:38:14;2.80;;;2.60;;
2638;SDS011;1329;51.384;7.122;2022-11-15T07:40:44;2.35;;;2.13;;
2638;SDS011;1329;51.384;7.122;2022-11-15T07:43:12;2.53;;;2.30;;
2638;SDS011;1329;51.384;7.122;2022-11-15T07:45:40;3.03;;;2.30;;
2638;SDS011;1329;51.384;7.122;2022-11-15T07:48:08;2.92;;;2.67;;
2638;SDS011;1329;51.384;7.122;2022-11-15T07:50:35;2.80;;;2.20;;
2638;SDS011;1329;51.384;7.122;2022-11-15T07:53:02;2.38;;;2.17;;
2638;SDS011;1329;51.384;7.122;2022-11-15T07:55:29;2.78;;;2.28;;
2638;SDS011;1329;51.384;7.122;2022-11-15T07:58:00;2.00;;;1.85;;
2638;SDS011;1329;51.384;7.122;2022-11-15T08:00:29;2.70;;;2.00;;
2638;SDS011;1329;51.384;7.122;2022-11-15T08:03:03;2.13;;;1.92;;
2638;SDS011;1329;51.384;7.122;2022-11-15T08:05:33;2.10;;;1.90;;
2638;SDS011;1329;51.384;7.122;2022-11-15T08:08:00;2.40;;;2.20;;
2638;SDS011;1329;51.384;7.122;2022-11-15T08:10:27;2.28;;;1.83;;
2638;SDS011;1329;51.384;7.122;2022-11-15T08:12:58;2.03;;;1.83;;
2638;SDS011;1329;51.384;7.122;2022-11-15T08:15:25;2.23;;;1.97;;
2638;SDS011;1329;51.384;7.122;2022-11-15T08:17:55;2.07;;;1.80;;
2638;SDS011;1329;51.384;7.122;2022-11-15T08:20:22;2.20;;;2.00;;
2638;SDS011;1329;51.384;7.122;2022-11-15T08:22:51;1.60;;;1.50;;
2638;SDS011;1329;51.384;7.122;2022-11-15T08:25:18;1.90;;;1.80;;
2638;SDS011;1329;51.384;7.122;2022-11-15T08:27:45;1.90;;;1.80;;
2638;SDS011;1329;51.384;7.122;2022-11-15T08:30:12;2.20;;;2.00;;
2638;SDS011;1329;51.384;7.122;2022-11-15T08:32:41;1.70;;;1.60;;
2638;SDS011;1329;51.384;7.122;2022-11-15T08:35:09;2.15;;;1.90;;
2638;SDS011;1329;51.384;7.122;2022-11-15T08:37:36;2.15;;;1.70;;
2638;SDS011;1329;51.384;7.122;2022-11-15T08:40:03;1.90;;;1.80;;
2638;SDS011;1329;51.384;7.122;2022-11-15T08:42:31;1.90;;;1.80;;
2638;SDS011;1329;51.384;7.122;2022-11-15T08:44:58;1.80;;;1.70;;
2638;SDS011;1329;51.384;7.122;2022-11-15T08:47:25;2.05;;;1.70;;
2638;SDS011;1329;51.384;7.122;2022-11-15T08:49:52;2.55;;;1.60;;
2638;SDS011;1329;51.384;7.122;2022-11-15T08:52:20;2.22;;;1.80;;
2638;SDS011;1329;51.384;7.122;2022-11-15T08:54:47;2.03;;;1.75;;
2638;SDS011;1329;51.384;7.122;2022-11-15T08:57:15;1.70;;;1.60;;
2638;SDS011;1329;51.384;7.122;2022-11-15T08:59:42;2.22;;;1.83;;
2638;SDS011;1329;51.384;7.122;2022-11-15T09:02:10;2.05;;;1.80;;
2638;SDS011;1329;51.384;7.122;2022-11-15T09:04:39;2.03;;;1.85;;
2638;SDS011;1329;51.384;7.122;2022-11-15T09:07:07;1.92;;;1.50;;
2638;SDS011;1329;51.384;7.122;2022-11-15T09:09:37;1.60;;;1.50;;
2638;SDS011;1329;51.384;7.122;2022-11-15T09:12:05;1.70;;;1.60;;
2638;SDS011;1329;51.384;7.122;2022-11-15T09:14:33;1.85;;;1.75;;
2638;SDS011;1329;51.384;7.122;2022-11-15T09:17:00;2.88;;;1.95;;
2638;SDS011;1329;51.384;7.122;2022-11-15T09:19:28;2.30;;;1.58;;
2638;SDS011;1329;51.384;7.122;2022-11-15T09:21:54;2.15;;;1.80;;
2638;SDS011;1329;51.384;7.122;2022-11-15T09:24:21;1.98;;;1.70;;
2638;SDS011;1329;51.384;7.122;2022-11-15T09:26:50;1.85;;;1.58;;
2638;SDS011;1329;51.384;7.122;2022-11-15T09:29:17;1.58;;;1.48;;
2638;SDS011;1329;51.384;7.122;2022-11-15T09:31:44;2.15;;;1.40;;
2638;SDS011;1329;51.384;7.122;2022-11-15T09:34:11;1.50;;;1.30;;
2638;SDS011;1329;51.384;7.122;2022-11-15T09:36:38;1.63;;;1.50;;
2638;SDS011;1329;51.384;7.122;2022-11-15T09:39:05;1.98;;;1.30;;
2638;SDS011;1329;51.384;7.122;2022-11-15T09:41:41;2.08;;;1.48;;
2638;SDS011;1329;51.384;7.122;2022-11-15T09:44:31;1.60;;;1.42;;
2638;SDS011;1329;51.384;7.122;2022-11-15T09:47:27;1.40;;;1.30;;
2638;SDS011;1329;51.384;7.122;2022-11-15T09:50:21;1.55;;;1.30;;
2638;SDS011;1329;51.384;7.122;2022-11-15T09:53:00;1.73;;;1.33;;
2638;SDS011;1329;51.384;7.122;2022-11-15T09:55:29;1.20;;;1.10;;
2638;SDS011;1329;51.384;7.122;2022-11-15T09:58:10;1.42;;;1.33;;
2638;SDS011;1329;51.384;7.122;2022-11-15T10:00:46;1.88;;;1.30;;
2638;SDS011;1329;51.384;7.122;2022-11-15T10:03:18;1.67;;;1.30;;
2638;SDS011;1329;51.384;7.122;2022-11-15T10:05:53;1.40;;;1.30;;
2638;SDS011;1329;51.384;7.122;2022-11-15T10:08:30;1.30;;;1.13;;
2638;SDS011;1329;51.384;7.122;2022-11-15T10:11:18;1.25;;;1.15;;
2638;SDS011;1329;51.384;7.122;2022-11-15T10:13:50;2.80;;;1.60;;
2638;SDS011;1329;51.384;7.122;2022-11-15T10:16:28;1.48;;;1.30;;
2638;SDS011;1329;51.384;7.122;2022-11-15T10:19:28;1.13;;;1.02;;
2638;SDS011;1329;51.384;7.122;2022-11-15T10:22:08;1.13;;;1.02;;
2638;SDS011;1329;51.384;7.122;2022-11-15T10:24:48;1.63;;;1.00;;
2638;SDS011;1329;51.384;7.122;2022-11-15T10:27:18;1.15;;;0.80;;
2638;SDS011;1329;51.384;7.122;2022-11-15T10:29:48;1.77;;;1.10;;
2638;SDS011;1329;51.384;7.122;2022-11-15T10:32:19;1.65;;;1.00;;
2638;SDS011;1329;51.384;7.122;2022-11-15T10:34:47;1.38;;;1.10;;
2638;SDS011;1329;51.384;7.122;2022-11-15T10:37:15;1.30;;;1.20;;
2638;SDS011;1329;51.384;7.122;2022-11-15T10:40:02;1.30;;;1.20;;
2638;SDS011;1329;51.384;7.122;2022-11-15T10:42:31;1.70;;;1.17;;
2638;SDS011;1329;51.384;7.122;2022-11-15T10:44:59;2.05;;;1.30;;
2638;SDS011;1329;51.384;7.122;2022-11-15T10:47:27;1.02;;;0.93;;
2638;SDS011;1329;51.384;7.122;2022-11-15T10:49:57;2.22;;;1.20;;
2638;SDS011;1329;51.384;7.122;2022-11-15T10:52:26;0.90;;;0.90;;
2638;SDS011;1329;51.384;7.122;2022-11-15T10:54:55;1.05;;;0.90;;
2638;SDS011;1329;51.384;7.122;2022-11-15T10:57:28;2.58;;;1.40;;
2638;SDS011;1329;51.384;7.122;2022-11-15T11:00:00;1.10;;;0.82;;
2638;SDS011;1329;51.384;7.122;2022-11-15T11:02:32;1.13;;;1.02;;
2638;SDS011;1329;51.384;7.122;2022-11-15T11:05:02;1.20;;;1.10;;
2638;SDS011;1329;51.384;7.122;2022-11-15T11:07:32;2.03;;;1.00;;
2638;SDS011;1329;51.384;7.122;2022-11-15T11:10:03;0.90;;;0.90;;
2638;SDS011;1329;51.384;7.122;2022-11-15T11:12:44;1.00;;;1.00;;
2638;SDS011;1329;51.384;7.122;2022-11-15T11:15:12;0.82;;;0.82;;
2638;SDS011;1329;51.384;7.122;2022-11-15T11:17:48;1.52;;;0.90;;
2638;SDS011;1329;51.384;7.122;2022-11-15T11:20:25;1.98;;;1.00;;
2638;SDS011;1329;51.384;7.122;2022-11-15T11:23:00;1.50;;;0.90;;
2638;SDS011;1329;51.384;7.122;2022-11-15T11:25:47;0.90;;;0.90;;
2638;SDS011;1329;51.384;7.122;2022-11-15T11:28:30;1.20;;;1.10;;
2638;SDS011;1329;51.384;7.122;2022-11-15T11:31:12;0.93;;;0.88;;
2638;SDS011;1329;51.384;7.122;2022-11-15T11:33:48;1.98;;;1.02;;
2638;SDS011;1329;51.384;7.122;2022-11-15T11:36:25;1.02;;;0.80;;
2638;SDS011;1329;51.384;7.122;2022-11-15T11:39:06;1.23;;;0.98;;
2638;SDS011;1329;51.384;7.122;2022-11-15T11:41:53;1.17;;;1.00;;
2638;SDS011;1329;51.384;7.122;2022-11-15T11:44:33;1.83;;;0.70;;
2638;SDS011;1329;51.384;7.122;2022-11-15T11:47:21;0.98;;;0.80;;
2638;SDS011;1329;51.384;7.122;2022-11-15T11:49:51;0.80;;;0.80;;
2638;SDS011;1329;51.384;7.122;2022-11-15T11:52:22;1.25;;;0.88;;
2638;SDS011;1329;51.384;7.122;2022-11-15T11:54:54;0.95;;;0.85;;
2638;SDS011;1329;51.384;7.122;2022-11-15T11:57:31;0.90;;;0.73;;
2638;SDS011;1329;51.384;7.122;2022-11-15T12:00:12;0.95;;;0.70;;
2638;SDS011;1329;51.384;7.122;2022-11-15T12:02:47;0.80;;;0.80;;
2638;SDS011;1329;51.384;7.122;2022-11-15T12:05:26;0.60;;;0.60;;
2638;SDS011;1329;51.384;7.122;2022-11-15T12:08:03;1.05;;;0.80;;
2638;SDS011;1329;51.384;7.122;2022-11-15T12:10:50;0.93;;;0.88;;
2638;SDS011;1329;51.384;7.122;2022-11-15T12:13:25;1.70;;;0.93;;
2638;SDS011;1329;51.384;7.122;2022-11-15T12:15:59;0.90;;;0.77;;
2638;SDS011;1329;51.384;7.122;2022-11-15T12:18:36;0.70;;;0.70;;
2638;SDS011;1329;51.384;7.122;2022-11-15T12:21:04;0.90;;;0.70;;
2638;SDS011;1329;51.384;7.122;2022-11-15T12:23:41;1.88;;;0.80;;
2638;SDS011;1329;51.384;7.122;2022-11-15T12:26:16;1.10;;;0.88;;
2638;SDS011;1329;51.384;7.122;2022-11-15T12:28:48;1.45;;;0.70;;
2638;SDS011;1329;51.384;7.122;2022-11-15T12:31:21;0.90;;;0.80;;
2638;SDS011;1329;51.384;7.122;2022-11-15T12:33:54;0.95;;;0.68;;
2638;SDS011;1329;51.384;7.122;2022-11-15T12:36:36;1.13;;;0.90;;
2638;SDS011;1329;51.384;7.122;2022-11-15T12:39:05;0.80;;;0.70;;
2638;SDS011;1329;51.384;7.122;2022-11-15T12:41:34;1.60;;;0.70;;
2638;SDS011;1329;51.384;7.122;2022-11-15T12:44:03;0.77;;;0.70;;
2638;SDS011;1329;51.384;7.122;2022-11-15T12:49:46;1.10;;;0.68;;
2638;SDS011;1329;51.384;7.122;2022-11-15T12:52:13;0.70;;;0.70;;
2638;SDS011;1329;51.384;7.122;2022-11-15T12:54:52;1.20;;;0.80;;
2638;SDS011;1329;51.384;7.122;2022-11-15T12:57:33;1.48;;;0.70;;
2638;SDS011;1329;51.384;7.122;2022-11-15T13:03:19;1.30;;;0.75;;
2638;SDS011;1329;51.384;7.122;2022-11-15T13:05:55;1.45;;;0.70;;
2638;SDS011;1329;51.384;7.122;2022-11-15T13:08:35;1.25;;;0.80;;
2638;SDS011;1329;51.384;7.122;2022-11-15T13:20:00;1.38;;;0.80;;
2638;SDS011;1329;51.384;7.122;2022-11-15T13:22:51;0.93;;;0.73;;
2638;SDS011;1329;51.384;7.122;2022-11-15T13:25:43;0.63;;;0.63;;
2638;SDS011;1329;51.384;7.122;2022-11-15T13:28:31;1.15;;;0.70;;
2638;SDS011;1329;51.384;7.122;2022-11-15T13:31:00;1.85;;;0.90;;
2638;SDS011;1329;51.384;7.122;2022-11-15T13:33:32;1.20;;;0.80;;
2638;SDS011;1329;51.384;7.122;2022-11-15T13:36:02;1.20;;;0.80;;
2638;SDS011;1329;51.384;7.122;2022-11-15T13:38:36;0.90;;;0.80;;
2638;SDS011;1329;51.384;7.122;2022-11-15T13:41:11;0.70;;;0.70;;
2638;SDS011;1329;51.384;7.122;2022-11-15T13:43:45;0.98;;;0.70;;
2638;SDS011;1329;51.384;7.122;2022-11-15T13:46:14;1.88;;;1.00;;
2638;SDS011;1329;51.384;7.122;2022-11-15T13:48:44;1.55;;;0.80;;
2638;SDS011;1329;51.384;7.122;2022-11-15T13:51:15;1.70;;;0.90;;
2638;SDS011;1329;51.384;7.122;2022-11-15T13:53:54;1.45;;;0.80;;
2638;SDS011;1329;51.384;7.122;2022-11-15T13:56:25;1.73;;;0.90;;
2638;SDS011;1329;51.384;7.122;2022-11-15T13:58:53;3.50;;;1.50;;
2638;SDS011;1329;51.384;7.122;2022-11-15T14:01:20;1.25;;;0.90;;
2638;SDS011;1329;51.384;7.122;2022-11-15T14:03:55;1.48;;;1.08;;
2638;SDS011;1329;51.384;7.122;2022-11-15T14:06:26;1.10;;;0.80;;
2638;SDS011;1329;51.384;7.122;2022-11-15T14:09:00;1.90;;;1.00;;
2638;SDS011;1329;51.384;7.122;2022-11-15T14:11:51;2.05;;;1.00;;
2638;SDS011;1329;51.384;7.122;2022-11-15T14:14:20;1.65;;;0.90;;
2638;SDS011;1329;51.384;7.122;2022-11-15T14:16:49;3.83;;;1.10;;
2638;SDS011;1329;51.384;7.122;2022-11-15T14:19:35;1.88;;;1.00;;
2638;SDS011;1329;51.384;7.122;2022-11-15T14:22:08;2.03;;;1.27;;
2638;SDS011;1329;51.384;7.122;2022-11-15T14:25:03;1.67;;;1.10;;
2638;SDS011;1329;51.384;7.122;2022-11-15T14:27:41;1.17;;;0.88;;
2638;SDS011;1329;51.384;7.122;2022-11-15T14:30:12;4.20;;;1.10;;
2638;SDS011;1329;51.384;7.122;2022-11-15T14:32:43;1.20;;;1.10;;
2638;SDS011;1329;51.384;7.122;2022-11-15T14:35:15;1.27;;;1.05;;
2638;SDS011;1329;51.384;7.122;2022-11-15T14:37:46;2.28;;;1.05;;
2638;SDS011;1329;51.384;7.122;2022-11-15T14:40:16;1.80;;;1.33;;
2638;SDS011;1329;51.384;7.122;2022-11-15T14:42:45;1.90;;;1.35;;
2638;SDS011;1329;51.384;7.122;2022-11-15T14:45:14;1.40;;;1.30;;
2638;SDS011;1329;51.384;7.122;2022-11-15T14:47:44;1.65;;;1.35;;
2638;SDS011;1329;51.384;7.122;2022-11-15T14:50:11;2.17;;;1.40;;
2638;SDS011;1329;51.384;7.122;2022-11-15T14:52:39;2.13;;;1.40;;
2638;SDS011;1329;51.384;7.122;2022-11-15T14:55:12;2.38;;;1.65;;
2638;SDS011;1329;51.384;7.122;2022-11-15T14:57:46;1.70;;;1.60;;
2638;SDS011;1329;51.384;7.122;2022-11-15T15:00:13;1.85;;;1.38;;
2638;SDS011;1329;51.384;7.122;2022-11-15T15:02:42;2.03;;;1.48;;
2638;SDS011;1329;51.384;7.122;2022-11-15T15:05:12;1.80;;;1.50;;
2638;SDS011;1329;51.384;7.122;2022-11-15T15:07:42;1.42;;;1.33;;
2638;SDS011;1329;51.384;7.122;2022-11-15T15:10:09;2.17;;;1.20;;
2638;SDS011;1329;51.384;7.122;2022-11-15T15:12:38;2.30;;;1.40;;
2638;SDS011;1329;51.384;7.122;2022-11-15T15:15:06;1.42;;;1.33;;
2638;SDS011;1329;51.384;7.122;2022-11-15T15:17:40;3.55;;;1.73;;
2638;SDS011;1329;51.384;7.122;2022-11-15T15:20:07;1.60;;;1.50;;
2638;SDS011;1329;51.384;7.122;2022-11-15T15:22:35;1.83;;;1.58;;
2638;SDS011;1329;51.384;7.122;2022-11-15T15:25:07;1.50;;;1.40;;
2638;SDS011;1329;51.384;7.122;2022-11-15T15:27:48;2.17;;;1.70;;
2638;SDS011;1329;51.384;7.122;2022-11-15T15:30:16;1.73;;;1.48;;
2638;SDS011;1329;51.384;7.122;2022-11-15T15:32:43;2.05;;;1.50;;
2638;SDS011;1329;51.384;7.122;2022-11-15T15:35:11;1.50;;;1.40;;
2638;SDS011;1329;51.384;7.122;2022-11-15T15:37:39;2.13;;;1.40;;
2638;SDS011;1329;51.384;7.122;2022-11-15T15:40:08;1.75;;;1.52;;
2638;SDS011;1329;51.384;7.122;2022-11-15T15:42:41;1.55;;;1.45;;
2638;SDS011;1329;51.384;7.122;2022-11-15T15:45:10;2.90;;;1.50;;
2638;SDS011;1329;51.384;7.122;2022-11-15T15:47:37;2.45;;;1.40;;
2638;SDS011;1329;51.384;7.122;2022-11-15T15:50:08;2.20;;;1.48;;
2638;SDS011;1329;51.384;7.122;2022-11-15T15:52:47;1.80;;;1.38;;
2638;SDS011;1329;51.384;7.122;2022-11-15T15:55:13;1.77;;;1.67;;
2638;SDS011;1329;51.384;7.122;2022-11-15T15:57:40;2.63;;;1.33;;